sensor_id;sensor_type;location;lat;lon;timestamp;P1;durP1;ratioP1;P2;durP2;ratioP2
19907;SDS011;10116;53.112;7.356;2024-02-16T00:01:05;1.50;;;1.50;;
19907;SDS011;10116;53.112;7.356;2024-02-16T00:03:30;1.47;;;1.37;;
19907;SDS011;10116;53.112;7.356;2024-02-16T00:05:56;1.27;;;1.20;;
19907;SDS011;10116;53.112;7.356;2024-02-16T00:08:22;1.30;;;1.20;;
19907;SDS011;10116;53.112;7.356;2024-02-16T00:10:47;1.20;;;1.17;;
19907;SDS011;10116;53.112;7.356;2024-02-16T00:13:13;2.50;;;1.43;;
19907;SDS011;10116;53.112;7.356;2024-02-16T00:15:39;1.43;;;1.33;;
19907;SDS011;10116;53.112;7.356;2024-02-16T00:18:05;1.13;;;1.13;;
19907;SDS011;10116;53.112;7.356;2024-02-16T00:20:31;1.43;;;1.33;;
19907;SDS011;10116;53.112;7.356;2024-02-16T00:22:57;1.23;;;1.23;;
19907;SDS011;10116;53.112;7.356;2024-02-16T00:25:23;1.43;;;1.33;;
19907;SDS011;10116;53.112;7.356;2024-02-16T00:27:49;1.50;;;1.00;;
19907;SDS011;10116;53.112;7.356;2024-02-16T00:30:15;1.20;;;1.20;;
19907;SDS011;10116;53.112;7.356;2024-02-16T00:32:42;1.30;;;1.20;;
19907;SDS011;10116;53.112;7.356;2024-02-16T00:35:10;1.20;;;1.10;;
19907;SDS011;10116;53.112;7.356;2024-02-16T00:37:42;1.70;;;1.60;;
19907;SDS011;10116;53.112;7.356;2024-02-16T00:40:08;1.17;;;1.07;;
19907;SDS011;10116;53.112;7.356;2024-02-16T00:42:34;1.10;;;1.10;;
19907;SDS011;10116;53.112;7.356;2024-02-16T00:45:00;1.60;;;1.50;;
19907;SDS011;10116;53.112;7.356;2024-02-16T00:47:26;1.40;;;1.30;;
19907;SDS011;10116;53.112;7.356;2024-02-16T00:49:54;1.37;;;1.27;;
19907;SDS011;10116;53.112;7.356;2024-02-16T00:52:20;1.10;;;1.10;;
19907;SDS011;10116;53.112;7.356;2024-02-16T00:54:47;2.13;;;1.10;;
19907;SDS011;10116;53.112;7.356;2024-02-16T00:57:13;1.60;;;1.50;;
19907;SDS011;10116;53.112;7.356;2024-02-16T00:59:42;1.40;;;1.30;;
19907;SDS011;10116;53.112;7.356;2024-02-16T01:02:07;1.33;;;1.10;;
19907;SDS011;10116;53.112;7.356;2024-02-16T01:04:35;1.50;;;1.40;;
19907;SDS011;10116;53.112;7.356;2024-02-16T01:07:01;1.30;;;1.10;;
19907;SDS011;10116;53.112;7.356;2024-02-16T01:09:26;1.50;;;1.40;;
19907;SDS011;10116;53.112;7.356;2024-02-16T01:11:52;1.00;;;1.00;;
19907;SDS011;10116;53.112;7.356;2024-02-16T01:14:18;1.60;;;1.50;;
19907;SDS011;10116;53.112;7.356;2024-02-16T01:16:44;1.30;;;1.30;;
19907;SDS011;10116;53.112;7.356;2024-02-16T01:19:11;1.20;;;1.10;;
19907;SDS011;10116;53.112;7.356;2024-02-16T01:21:37;1.00;;;1.00;;
19907;SDS011;10116;53.112;7.356;2024-02-16T01:24:03;2.20;;;1.53;;
19907;SDS011;10116;53.112;7.356;2024-02-16T01:26:31;1.57;;;1.47;;
19907;SDS011;10116;53.112;7.356;2024-02-16T01:28:57;1.40;;;1.30;;
19907;SDS011;10116;53.112;7.356;2024-02-16T01:31:23;1.10;;;1.10;;
19907;SDS011;10116;53.112;7.356;2024-02-16T01:33:49;1.97;;;1.13;;
19907;SDS011;10116;53.112;7.356;2024-02-16T01:36:15;1.07;;;1.03;;
19907;SDS011;10116;53.112;7.356;2024-02-16T01:38:40;1.30;;;1.23;;
19907;SDS011;10116;53.112;7.356;2024-02-16T01:41:06;3.53;;;1.10;;
19907;SDS011;10116;53.112;7.356;2024-02-16T01:43:33;1.73;;;1.63;;
19907;SDS011;10116;53.112;7.356;2024-02-16T01:45:59;1.40;;;1.20;;
19907;SDS011;10116;53.112;7.356;2024-02-16T01:48:25;1.10;;;1.10;;
19907;SDS011;10116;53.112;7.356;2024-02-16T01:50:52;1.17;;;1.13;;
19907;SDS011;10116;53.112;7.356;2024-02-16T01:53:19;5.80;;;1.07;;
19907;SDS011;10116;53.112;7.356;2024-02-16T01:55:46;1.50;;;1.40;;
19907;SDS011;10116;53.112;7.356;2024-02-16T01:58:12;1.10;;;1.10;;
19907;SDS011;10116;53.112;7.356;2024-02-16T02:00:38;1.17;;;1.10;;
19907;SDS011;10116;53.112;7.356;2024-02-16T02:03:06;2.40;;;1.30;;
19907;SDS011;10116;53.112;7.356;2024-02-16T02:05:31;1.60;;;1.33;;
19907;SDS011;10116;53.112;7.356;2024-02-16T02:07:57;1.50;;;1.43;;
19907;SDS011;10116;53.112;7.356;2024-02-16T02:10:23;1.00;;;1.00;;
19907;SDS011;10116;53.112;7.356;2024-02-16T02:12:49;1.60;;;1.50;;
19907;SDS011;10116;53.112;7.356;2024-02-16T02:15:14;1.20;;;1.20;;
19907;SDS011;10116;53.112;7.356;2024-02-16T02:17:40;1.17;;;1.17;;
19907;SDS011;10116;53.112;7.356;2024-02-16T02:20:06;1.80;;;1.60;;
19907;SDS011;10116;53.112;7.356;2024-02-16T02:22:37;1.17;;;1.10;;
19907;SDS011;10116;53.112;7.356;2024-02-16T02:25:03;2.93;;;1.70;;
19907;SDS011;10116;53.112;7.356;2024-02-16T02:27:29;1.07;;;1.07;;
19907;SDS011;10116;53.112;7.356;2024-02-16T02:29:55;1.40;;;1.30;;
19907;SDS011;10116;53.112;7.356;2024-02-16T02:32:21;1.40;;;1.30;;
19907;SDS011;10116;53.112;7.356;2024-02-16T02:34:46;1.27;;;1.17;;
19907;SDS011;10116;53.112;7.356;2024-02-16T02:37:12;1.20;;;1.20;;
19907;SDS011;10116;53.112;7.356;2024-02-16T02:39:38;2.30;;;1.20;;
19907;SDS011;10116;53.112;7.356;2024-02-16T02:42:05;1.20;;;1.20;;
19907;SDS011;10116;53.112;7.356;2024-02-16T02:44:31;1.97;;;1.30;;
19907;SDS011;10116;53.112;7.356;2024-02-16T02:46:58;1.70;;;1.10;;
19907;SDS011;10116;53.112;7.356;2024-02-16T02:49:24;1.40;;;1.30;;
19907;SDS011;10116;53.112;7.356;2024-02-16T02:51:49;4.00;;;1.30;;
19907;SDS011;10116;53.112;7.356;2024-02-16T02:54:15;1.23;;;1.20;;
19907;SDS011;10116;53.112;7.356;2024-02-16T02:56:40;1.33;;;1.30;;
19907;SDS011;10116;53.112;7.356;2024-02-16T02:59:06;1.20;;;1.10;;
19907;SDS011;10116;53.112;7.356;2024-02-16T03:01:32;1.40;;;1.40;;
19907;SDS011;10116;53.112;7.356;2024-02-16T03:04:00;1.30;;;1.20;;
19907;SDS011;10116;53.112;7.356;2024-02-16T03:06:26;1.33;;;1.23;;
19907;SDS011;10116;53.112;7.356;2024-02-16T03:08:52;1.20;;;1.20;;
19907;SDS011;10116;53.112;7.356;2024-02-16T03:11:18;1.20;;;1.10;;
19907;SDS011;10116;53.112;7.356;2024-02-16T03:13:43;1.40;;;1.30;;
19907;SDS011;10116;53.112;7.356;2024-02-16T03:16:09;0.97;;;0.97;;
19907;SDS011;10116;53.112;7.356;2024-02-16T03:18:36;1.40;;;1.40;;
19907;SDS011;10116;53.112;7.356;2024-02-16T03:21:01;2.07;;;1.60;;
19907;SDS011;10116;53.112;7.356;2024-02-16T03:23:27;1.30;;;1.30;;
19907;SDS011;10116;53.112;7.356;2024-02-16T03:25:53;1.40;;;1.30;;
19907;SDS011;10116;53.112;7.356;2024-02-16T03:28:19;1.50;;;1.40;;
19907;SDS011;10116;53.112;7.356;2024-02-16T03:30:45;1.03;;;1.03;;
19907;SDS011;10116;53.112;7.356;2024-02-16T03:33:12;1.93;;;1.40;;
19907;SDS011;10116;53.112;7.356;2024-02-16T03:35:38;1.10;;;1.10;;
19907;SDS011;10116;53.112;7.356;2024-02-16T03:38:05;1.40;;;1.40;;
19907;SDS011;10116;53.112;7.356;2024-02-16T03:40:31;1.57;;;1.50;;
19907;SDS011;10116;53.112;7.356;2024-02-16T03:42:57;1.17;;;1.10;;
19907;SDS011;10116;53.112;7.356;2024-02-16T03:45:23;1.90;;;1.20;;
19907;SDS011;10116;53.112;7.356;2024-02-16T03:47:49;1.40;;;1.30;;
19907;SDS011;10116;53.112;7.356;2024-02-16T03:50:17;1.17;;;1.17;;
19907;SDS011;10116;53.112;7.356;2024-02-16T03:52:47;1.53;;;1.40;;
19907;SDS011;10116;53.112;7.356;2024-02-16T03:55:13;1.10;;;1.10;;
19907;SDS011;10116;53.112;7.356;2024-02-16T03:57:39;1.37;;;1.30;;
19907;SDS011;10116;53.112;7.356;2024-02-16T04:00:05;1.03;;;0.93;;
19907;SDS011;10116;53.112;7.356;2024-02-16T04:02:31;1.30;;;1.20;;
19907;SDS011;10116;53.112;7.356;2024-02-16T04:04:57;1.53;;;1.53;;
19907;SDS011;10116;53.112;7.356;2024-02-16T04:07:23;1.60;;;1.50;;
19907;SDS011;10116;53.112;7.356;2024-02-16T04:09:48;1.40;;;1.30;;
19907;SDS011;10116;53.112;7.356;2024-02-16T04:12:14;1.47;;;1.20;;
19907;SDS011;10116;53.112;7.356;2024-02-16T04:14:40;5.13;;;1.70;;
19907;SDS011;10116;53.112;7.356;2024-02-16T04:17:06;1.30;;;1.20;;
19907;SDS011;10116;53.112;7.356;2024-02-16T04:19:32;1.23;;;1.13;;
19907;SDS011;10116;53.112;7.356;2024-02-16T04:21:58;1.60;;;1.10;;
19907;SDS011;10116;53.112;7.356;2024-02-16T04:24:23;1.30;;;1.20;;
19907;SDS011;10116;53.112;7.356;2024-02-16T04:26:49;1.20;;;1.20;;
19907;SDS011;10116;53.112;7.356;2024-02-16T04:29:15;1.30;;;1.30;;
19907;SDS011;10116;53.112;7.356;2024-02-16T04:31:41;1.40;;;1.40;;
19907;SDS011;10116;53.112;7.356;2024-02-16T04:34:10;1.57;;;1.47;;
19907;SDS011;10116;53.112;7.356;2024-02-16T04:36:36;1.10;;;1.10;;
19907;SDS011;10116;53.112;7.356;2024-02-16T04:39:02;1.47;;;1.37;;
19907;SDS011;10116;53.112;7.356;2024-02-16T04:41:28;1.70;;;1.60;;
19907;SDS011;10116;53.112;7.356;2024-02-16T04:43:54;1.20;;;1.10;;
19907;SDS011;10116;53.112;7.356;2024-02-16T04:46:20;1.83;;;1.70;;
19907;SDS011;10116;53.112;7.356;2024-02-16T04:48:46;1.47;;;1.40;;
19907;SDS011;10116;53.112;7.356;2024-02-16T04:51:12;1.57;;;1.47;;
19907;SDS011;10116;53.112;7.356;2024-02-16T04:53:37;1.23;;;1.13;;
19907;SDS011;10116;53.112;7.356;2024-02-16T04:56:03;1.30;;;1.30;;
19907;SDS011;10116;53.112;7.356;2024-02-16T04:58:30;1.67;;;1.57;;
19907;SDS011;10116;53.112;7.356;2024-02-16T05:00:56;1.80;;;1.70;;
19907;SDS011;10116;53.112;7.356;2024-02-16T05:03:22;1.63;;;1.53;;
19907;SDS011;10116;53.112;7.356;2024-02-16T05:05:47;1.40;;;1.30;;
19907;SDS011;10116;53.112;7.356;2024-02-16T05:08:13;1.53;;;1.43;;
19907;SDS011;10116;53.112;7.356;2024-02-16T05:10:39;1.63;;;1.53;;
19907;SDS011;10116;53.112;7.356;2024-02-16T05:13:05;1.73;;;1.63;;
19907;SDS011;10116;53.112;7.356;2024-02-16T05:15:30;1.73;;;1.63;;
19907;SDS011;10116;53.112;7.356;2024-02-16T05:17:56;1.70;;;1.60;;
19907;SDS011;10116;53.112;7.356;2024-02-16T05:20:22;2.10;;;2.00;;
19907;SDS011;10116;53.112;7.356;2024-02-16T05:22:48;1.87;;;1.77;;
19907;SDS011;10116;53.112;7.356;2024-02-16T05:25:17;2.50;;;1.40;;
19907;SDS011;10116;53.112;7.356;2024-02-16T05:27:44;2.13;;;1.10;;
19907;SDS011;10116;53.112;7.356;2024-02-16T05:30:11;3.27;;;1.90;;
19907;SDS011;10116;53.112;7.356;2024-02-16T05:32:39;1.27;;;1.20;;
19907;SDS011;10116;53.112;7.356;2024-02-16T05:35:05;1.50;;;1.40;;
19907;SDS011;10116;53.112;7.356;2024-02-16T05:37:46;1.63;;;1.53;;
19907;SDS011;10116;53.112;7.356;2024-02-16T05:40:14;2.00;;;1.70;;
19907;SDS011;10116;53.112;7.356;2024-02-16T05:42:52;1.50;;;1.50;;
19907;SDS011;10116;53.112;7.356;2024-02-16T05:45:18;2.10;;;1.50;;
19907;SDS011;10116;53.112;7.356;2024-02-16T05:47:45;1.77;;;1.67;;
19907;SDS011;10116;53.112;7.356;2024-02-16T05:50:14;1.57;;;1.47;;
19907;SDS011;10116;53.112;7.356;2024-02-16T05:52:40;1.33;;;1.23;;
19907;SDS011;10116;53.112;7.356;2024-02-16T05:55:07;1.40;;;1.30;;
19907;SDS011;10116;53.112;7.356;2024-02-16T05:57:34;1.50;;;1.43;;
19907;SDS011;10116;53.112;7.356;2024-02-16T06:00:00;1.33;;;1.33;;
19907;SDS011;10116;53.112;7.356;2024-02-16T06:02:29;1.40;;;1.33;;
19907;SDS011;10116;53.112;7.356;2024-02-16T06:04:55;1.60;;;1.50;;
19907;SDS011;10116;53.112;7.356;2024-02-16T06:07:20;1.50;;;1.40;;
19907;SDS011;10116;53.112;7.356;2024-02-16T06:09:46;4.93;;;1.47;;
19907;SDS011;10116;53.112;7.356;2024-02-16T06:12:12;1.40;;;1.30;;
19907;SDS011;10116;53.112;7.356;2024-02-16T06:14:38;1.70;;;1.60;;
19907;SDS011;10116;53.112;7.356;2024-02-16T06:17:03;1.40;;;1.30;;
19907;SDS011;10116;53.112;7.356;2024-02-16T06:19:29;1.40;;;1.30;;
19907;SDS011;10116;53.112;7.356;2024-02-16T06:21:55;1.47;;;1.30;;
19907;SDS011;10116;53.112;7.356;2024-02-16T06:24:22;1.50;;;1.40;;
19907;SDS011;10116;53.112;7.356;2024-02-16T06:26:48;1.53;;;1.43;;
19907;SDS011;10116;53.112;7.356;2024-02-16T06:29:14;1.87;;;1.60;;
19907;SDS011;10116;53.112;7.356;2024-02-16T06:31:41;1.50;;;1.50;;
19907;SDS011;10116;53.112;7.356;2024-02-16T06:34:06;2.73;;;1.57;;
19907;SDS011;10116;53.112;7.356;2024-02-16T06:36:33;2.63;;;1.30;;
19907;SDS011;10116;53.112;7.356;2024-02-16T06:38:59;2.70;;;1.47;;
19907;SDS011;10116;53.112;7.356;2024-02-16T06:41:25;2.10;;;1.90;;
19907;SDS011;10116;53.112;7.356;2024-02-16T06:43:51;1.60;;;1.50;;
19907;SDS011;10116;53.112;7.356;2024-02-16T06:46:17;2.20;;;1.73;;
19907;SDS011;10116;53.112;7.356;2024-02-16T06:48:43;1.30;;;1.30;;
19907;SDS011;10116;53.112;7.356;2024-02-16T06:51:09;1.90;;;1.80;;
19907;SDS011;10116;53.112;7.356;2024-02-16T06:53:34;1.63;;;1.60;;
19907;SDS011;10116;53.112;7.356;2024-02-16T06:56:00;5.00;;;2.80;;
19907;SDS011;10116;53.112;7.356;2024-02-16T06:58:25;8.20;;;2.57;;
19907;SDS011;10116;53.112;7.356;2024-02-16T07:00:51;2.50;;;2.33;;
19907;SDS011;10116;53.112;7.356;2024-02-16T07:03:17;3.43;;;2.23;;
19907;SDS011;10116;53.112;7.356;2024-02-16T07:05:43;2.83;;;2.57;;
19907;SDS011;10116;53.112;7.356;2024-02-16T07:08:09;3.90;;;2.47;;
19907;SDS011;10116;53.112;7.356;2024-02-16T07:10:34;9.93;;;2.80;;
19907;SDS011;10116;53.112;7.356;2024-02-16T07:13:00;2.80;;;2.50;;
19907;SDS011;10116;53.112;7.356;2024-02-16T07:15:26;3.00;;;2.70;;
19907;SDS011;10116;53.112;7.356;2024-02-16T07:17:53;3.77;;;2.80;;
19907;SDS011;10116;53.112;7.356;2024-02-16T07:20:18;2.73;;;2.63;;
19907;SDS011;10116;53.112;7.356;2024-02-16T07:22:44;2.83;;;2.10;;
19907;SDS011;10116;53.112;7.356;2024-02-16T07:25:16;2.30;;;2.10;;
19907;SDS011;10116;53.112;7.356;2024-02-16T07:27:42;4.40;;;2.77;;
19907;SDS011;10116;53.112;7.356;2024-02-16T07:30:08;2.80;;;2.60;;
19907;SDS011;10116;53.112;7.356;2024-02-16T07:32:36;3.00;;;2.27;;
19907;SDS011;10116;53.112;7.356;2024-02-16T07:35:01;5.10;;;2.43;;
19907;SDS011;10116;53.112;7.356;2024-02-16T07:37:28;1.70;;;1.70;;
19907;SDS011;10116;53.112;7.356;2024-02-16T07:39:53;2.47;;;2.30;;
19907;SDS011;10116;53.112;7.356;2024-02-16T07:42:19;2.80;;;1.93;;
19907;SDS011;10116;53.112;7.356;2024-02-16T07:44:45;7.37;;;2.90;;
19907;SDS011;10116;53.112;7.356;2024-02-16T07:47:11;2.20;;;2.10;;
19907;SDS011;10116;53.112;7.356;2024-02-16T07:49:40;2.10;;;1.93;;
19907;SDS011;10116;53.112;7.356;2024-02-16T07:52:06;2.87;;;2.00;;
19907;SDS011;10116;53.112;7.356;2024-02-16T07:54:32;2.50;;;2.30;;
19907;SDS011;10116;53.112;7.356;2024-02-16T07:56:57;1.80;;;1.70;;
19907;SDS011;10116;53.112;7.356;2024-02-16T07:59:24;2.47;;;2.27;;
19907;SDS011;10116;53.112;7.356;2024-02-16T08:01:50;2.20;;;2.10;;
19907;SDS011;10116;53.112;7.356;2024-02-16T08:04:16;2.30;;;2.10;;
19907;SDS011;10116;53.112;7.356;2024-02-16T08:06:41;2.00;;;1.90;;
19907;SDS011;10116;53.112;7.356;2024-02-16T08:09:07;2.03;;;1.90;;
19907;SDS011;10116;53.112;7.356;2024-02-16T08:11:33;2.23;;;2.10;;
19907;SDS011;10116;53.112;7.356;2024-02-16T08:13:58;2.13;;;2.03;;
19907;SDS011;10116;53.112;7.356;2024-02-16T08:16:26;2.13;;;2.03;;
19907;SDS011;10116;53.112;7.356;2024-02-16T08:18:52;2.00;;;1.90;;
19907;SDS011;10116;53.112;7.356;2024-02-16T08:21:18;3.20;;;1.83;;
19907;SDS011;10116;53.112;7.356;2024-02-16T08:23:44;2.10;;;2.00;;
19907;SDS011;10116;53.112;7.356;2024-02-16T08:26:09;2.27;;;2.00;;
19907;SDS011;10116;53.112;7.356;2024-02-16T08:28:35;2.00;;;1.90;;
19907;SDS011;10116;53.112;7.356;2024-02-16T08:31:00;2.37;;;2.17;;
19907;SDS011;10116;53.112;7.356;2024-02-16T08:33:26;2.43;;;2.23;;
19907;SDS011;10116;53.112;7.356;2024-02-16T08:35:52;2.33;;;1.87;;
19907;SDS011;10116;53.112;7.356;2024-02-16T08:38:17;7.77;;;2.13;;
19907;SDS011;10116;53.112;7.356;2024-02-16T08:40:43;2.50;;;2.30;;
19907;SDS011;10116;53.112;7.356;2024-02-16T08:43:09;3.80;;;2.10;;
19907;SDS011;10116;53.112;7.356;2024-02-16T08:45:34;2.30;;;2.10;;
19907;SDS011;10116;53.112;7.356;2024-02-16T08:48:00;2.70;;;2.33;;
19907;SDS011;10116;53.112;7.356;2024-02-16T08:50:28;1.80;;;1.70;;
19907;SDS011;10116;53.112;7.356;2024-02-16T08:52:54;2.20;;;2.10;;
19907;SDS011;10116;53.112;7.356;2024-02-16T08:55:20;3.07;;;2.30;;
19907;SDS011;10116;53.112;7.356;2024-02-16T08:57:46;2.20;;;2.00;;
19907;SDS011;10116;53.112;7.356;2024-02-16T09:00:12;3.60;;;2.20;;
19907;SDS011;10116;53.112;7.356;2024-02-16T09:02:38;1.87;;;1.83;;
19907;SDS011;10116;53.112;7.356;2024-02-16T09:05:04;2.33;;;2.13;;
19907;SDS011;10116;53.112;7.356;2024-02-16T09:07:30;2.03;;;1.90;;
19907;SDS011;10116;53.112;7.356;2024-02-16T09:09:55;3.30;;;1.90;;
19907;SDS011;10116;53.112;7.356;2024-02-16T09:12:21;2.83;;;2.10;;
19907;SDS011;10116;53.112;7.356;2024-02-16T09:14:47;1.87;;;1.77;;
19907;SDS011;10116;53.112;7.356;2024-02-16T09:17:13;2.00;;;1.90;;
19907;SDS011;10116;53.112;7.356;2024-02-16T09:19:39;2.27;;;2.10;;
19907;SDS011;10116;53.112;7.356;2024-02-16T09:22:04;2.60;;;2.20;;
19907;SDS011;10116;53.112;7.356;2024-02-16T09:24:31;2.17;;;2.07;;
19907;SDS011;10116;53.112;7.356;2024-02-16T09:26:57;1.87;;;1.77;;
19907;SDS011;10116;53.112;7.356;2024-02-16T09:29:28;2.17;;;2.07;;
19907;SDS011;10116;53.112;7.356;2024-02-16T09:31:54;4.27;;;2.37;;
19907;SDS011;10116;53.112;7.356;2024-02-16T09:34:19;2.97;;;2.20;;
19907;SDS011;10116;53.112;7.356;2024-02-16T09:36:45;2.40;;;2.20;;
19907;SDS011;10116;53.112;7.356;2024-02-16T09:39:11;2.50;;;2.10;;
19907;SDS011;10116;53.112;7.356;2024-02-16T09:41:37;2.30;;;2.20;;
19907;SDS011;10116;53.112;7.356;2024-02-16T09:44:07;3.93;;;2.60;;
19907;SDS011;10116;53.112;7.356;2024-02-16T09:46:33;2.03;;;1.97;;
19907;SDS011;10116;53.112;7.356;2024-02-16T09:49:02;2.00;;;1.90;;
19907;SDS011;10116;53.112;7.356;2024-02-16T09:51:29;2.83;;;2.30;;
19907;SDS011;10116;53.112;7.356;2024-02-16T09:53:55;3.70;;;2.63;;
19907;SDS011;10116;53.112;7.356;2024-02-16T09:56:21;3.00;;;2.20;;
19907;SDS011;10116;53.112;7.356;2024-02-16T09:58:47;2.80;;;2.30;;
19907;SDS011;10116;53.112;7.356;2024-02-16T10:01:19;7.23;;;2.37;;
19907;SDS011;10116;53.112;7.356;2024-02-16T10:03:45;2.33;;;2.13;;
19907;SDS011;10116;53.112;7.356;2024-02-16T10:06:11;2.13;;;2.03;;
19907;SDS011;10116;53.112;7.356;2024-02-16T10:08:53;2.97;;;2.10;;
19907;SDS011;10116;53.112;7.356;2024-02-16T10:11:21;3.07;;;2.20;;
19907;SDS011;10116;53.112;7.356;2024-02-16T10:16:21;2.40;;;2.20;;
19907;SDS011;10116;53.112;7.356;2024-02-16T10:18:47;1.93;;;1.90;;
19907;SDS011;10116;53.112;7.356;2024-02-16T10:21:13;2.23;;;2.00;;
19907;SDS011;10116;53.112;7.356;2024-02-16T10:23:38;2.20;;;2.03;;
19907;SDS011;10116;53.112;7.356;2024-02-16T10:26:04;2.23;;;2.10;;
19907;SDS011;10116;53.112;7.356;2024-02-16T10:28:29;1.87;;;1.77;;
19907;SDS011;10116;53.112;7.356;2024-02-16T10:30:57;2.40;;;1.90;;
19907;SDS011;10116;53.112;7.356;2024-02-16T10:33:26;2.50;;;2.00;;
19907;SDS011;10116;53.112;7.356;2024-02-16T10:35:55;4.17;;;1.87;;
19907;SDS011;10116;53.112;7.356;2024-02-16T10:38:25;1.90;;;1.80;;
19907;SDS011;10116;53.112;7.356;2024-02-16T10:40:52;2.43;;;1.60;;
19907;SDS011;10116;53.112;7.356;2024-02-16T10:43:18;1.97;;;1.87;;
19907;SDS011;10116;53.112;7.356;2024-02-16T10:45:46;1.97;;;1.67;;
19907;SDS011;10116;53.112;7.356;2024-02-16T10:48:17;1.83;;;1.73;;
19907;SDS011;10116;53.112;7.356;2024-02-16T10:50:43;2.23;;;2.03;;
19907;SDS011;10116;53.112;7.356;2024-02-16T10:53:23;2.17;;;2.00;;
19907;SDS011;10116;53.112;7.356;2024-02-16T10:55:51;2.10;;;1.80;;
19907;SDS011;10116;53.112;7.356;2024-02-16T10:58:17;2.00;;;1.90;;
19907;SDS011;10116;53.112;7.356;2024-02-16T11:00:53;2.60;;;1.90;;
19907;SDS011;10116;53.112;7.356;2024-02-16T11:03:24;2.97;;;1.83;;
19907;SDS011;10116;53.112;7.356;2024-02-16T11:05:50;1.63;;;1.63;;
19907;SDS011;10116;53.112;7.356;2024-02-16T11:08:20;3.40;;;1.73;;
19907;SDS011;10116;53.112;7.356;2024-02-16T11:10:58;1.90;;;1.80;;
19907;SDS011;10116;53.112;7.356;2024-02-16T11:13:25;1.80;;;1.70;;
19907;SDS011;10116;53.112;7.356;2024-02-16T11:15:58;2.83;;;1.63;;
19907;SDS011;10116;53.112;7.356;2024-02-16T11:18:25;1.80;;;1.70;;
19907;SDS011;10116;53.112;7.356;2024-02-16T11:20:55;1.90;;;1.80;;
19907;SDS011;10116;53.112;7.356;2024-02-16T11:23:28;8.07;;;2.47;;
19907;SDS011;10116;53.112;7.356;2024-02-16T11:25:59;2.30;;;2.20;;
19907;SDS011;10116;53.112;7.356;2024-02-16T11:28:33;1.97;;;1.87;;
19907;SDS011;10116;53.112;7.356;2024-02-16T11:30:59;8.77;;;2.27;;
19907;SDS011;10116;53.112;7.356;2024-02-16T11:33:26;3.80;;;2.10;;
19907;SDS011;10116;53.112;7.356;2024-02-16T11:35:58;1.93;;;1.83;;
19907;SDS011;10116;53.112;7.356;2024-02-16T11:38:30;1.83;;;1.73;;
19907;SDS011;10116;53.112;7.356;2024-02-16T11:40:58;2.50;;;2.30;;
19907;SDS011;10116;53.112;7.356;2024-02-16T11:43:26;3.07;;;2.20;;
19907;SDS011;10116;53.112;7.356;2024-02-16T11:45:52;2.23;;;2.10;;
19907;SDS011;10116;53.112;7.356;2024-02-16T11:48:25;2.80;;;2.17;;
19907;SDS011;10116;53.112;7.356;2024-02-16T11:50:58;4.77;;;2.13;;
19907;SDS011;10116;53.112;7.356;2024-02-16T11:53:29;5.70;;;1.70;;
19907;SDS011;10116;53.112;7.356;2024-02-16T11:55:55;2.83;;;1.80;;
19907;SDS011;10116;53.112;7.356;2024-02-16T11:58:21;2.83;;;2.30;;
19907;SDS011;10116;53.112;7.356;2024-02-16T12:00:47;1.70;;;1.60;;
19907;SDS011;10116;53.112;7.356;2024-02-16T12:03:20;2.07;;;1.97;;
19907;SDS011;10116;53.112;7.356;2024-02-16T12:05:53;1.80;;;1.70;;
19907;SDS011;10116;53.112;7.356;2024-02-16T12:08:20;1.90;;;1.80;;
19907;SDS011;10116;53.112;7.356;2024-02-16T12:10:47;1.90;;;1.80;;
19907;SDS011;10116;53.112;7.356;2024-02-16T12:13:15;2.20;;;2.10;;
19907;SDS011;10116;53.112;7.356;2024-02-16T12:15:43;2.03;;;1.90;;
19907;SDS011;10116;53.112;7.356;2024-02-16T12:18:10;2.67;;;2.40;;
19907;SDS011;10116;53.112;7.356;2024-02-16T12:20:35;1.57;;;1.47;;
19907;SDS011;10116;53.112;7.356;2024-02-16T12:23:10;2.27;;;2.07;;
19907;SDS011;10116;53.112;7.356;2024-02-16T12:25:37;2.37;;;2.17;;
19907;SDS011;10116;53.112;7.356;2024-02-16T12:28:02;2.80;;;2.53;;
19907;SDS011;10116;53.112;7.356;2024-02-16T12:30:28;2.00;;;1.90;;
19907;SDS011;10116;53.112;7.356;2024-02-16T12:32:53;2.30;;;2.20;;
19907;SDS011;10116;53.112;7.356;2024-02-16T12:35:19;5.27;;;2.53;;
19907;SDS011;10116;53.112;7.356;2024-02-16T12:37:45;3.20;;;3.00;;
19907;SDS011;10116;53.112;7.356;2024-02-16T12:40:11;2.20;;;2.10;;
19907;SDS011;10116;53.112;7.356;2024-02-16T12:42:36;2.57;;;2.37;;
19907;SDS011;10116;53.112;7.356;2024-02-16T12:45:03;2.10;;;2.00;;
19907;SDS011;10116;53.112;7.356;2024-02-16T12:47:29;2.57;;;2.37;;
19907;SDS011;10116;53.112;7.356;2024-02-16T12:49:55;3.10;;;2.70;;
19907;SDS011;10116;53.112;7.356;2024-02-16T12:52:22;2.40;;;2.30;;
19907;SDS011;10116;53.112;7.356;2024-02-16T12:54:48;12.10;;;3.43;;
19907;SDS011;10116;53.112;7.356;2024-02-16T12:57:14;8.63;;;3.10;;
19907;SDS011;10116;53.112;7.356;2024-02-16T12:59:39;7.33;;;3.30;;
19907;SDS011;10116;53.112;7.356;2024-02-16T13:02:05;9.37;;;3.40;;
19907;SDS011;10116;53.112;7.356;2024-02-16T13:04:30;6.97;;;3.80;;
19907;SDS011;10116;53.112;7.356;2024-02-16T13:06:57;6.70;;;3.40;;
19907;SDS011;10116;53.112;7.356;2024-02-16T13:09:23;4.43;;;2.67;;
19907;SDS011;10116;53.112;7.356;2024-02-16T13:11:49;5.73;;;3.13;;
19907;SDS011;10116;53.112;7.356;2024-02-16T13:14:19;3.37;;;2.60;;
19907;SDS011;10116;53.112;7.356;2024-02-16T13:16:45;2.83;;;2.50;;
19907;SDS011;10116;53.112;7.356;2024-02-16T13:19:12;5.30;;;2.47;;
19907;SDS011;10116;53.112;7.356;2024-02-16T13:21:38;3.93;;;2.83;;
19907;SDS011;10116;53.112;7.356;2024-02-16T13:24:05;2.37;;;2.07;;
19907;SDS011;10116;53.112;7.356;2024-02-16T13:26:31;2.57;;;2.47;;
19907;SDS011;10116;53.112;7.356;2024-02-16T13:28:57;2.60;;;2.40;;
19907;SDS011;10116;53.112;7.356;2024-02-16T13:31:22;3.17;;;2.53;;
19907;SDS011;10116;53.112;7.356;2024-02-16T13:33:49;4.30;;;2.90;;
19907;SDS011;10116;53.112;7.356;2024-02-16T13:36:18;2.70;;;2.30;;
19907;SDS011;10116;53.112;7.356;2024-02-16T13:38:43;2.87;;;2.43;;
19907;SDS011;10116;53.112;7.356;2024-02-16T13:41:09;2.63;;;2.43;;
19907;SDS011;10116;53.112;7.356;2024-02-16T13:43:35;3.17;;;2.23;;
19907;SDS011;10116;53.112;7.356;2024-02-16T13:46:00;2.40;;;2.20;;
19907;SDS011;10116;53.112;7.356;2024-02-16T13:48:26;2.30;;;2.10;;
19907;SDS011;10116;53.112;7.356;2024-02-16T13:50:53;2.20;;;2.00;;
19907;SDS011;10116;53.112;7.356;2024-02-16T13:53:19;2.50;;;2.30;;
19907;SDS011;10116;53.112;7.356;2024-02-16T13:55:48;2.90;;;2.47;;
19907;SDS011;10116;53.112;7.356;2024-02-16T13:58:14;2.30;;;2.10;;
19907;SDS011;10116;53.112;7.356;2024-02-16T14:00:39;3.60;;;2.43;;
19907;SDS011;10116;53.112;7.356;2024-02-16T14:03:08;2.20;;;2.00;;
19907;SDS011;10116;53.112;7.356;2024-02-16T14:05:36;3.23;;;2.20;;
19907;SDS011;10116;53.112;7.356;2024-02-16T14:08:06;6.00;;;2.50;;
19907;SDS011;10116;53.112;7.356;2024-02-16T14:10:36;2.63;;;2.10;;
19907;SDS011;10116;53.112;7.356;2024-02-16T14:13:02;3.27;;;2.30;;
19907;SDS011;10116;53.112;7.356;2024-02-16T14:15:27;7.00;;;2.37;;
19907;SDS011;10116;53.112;7.356;2024-02-16T14:17:53;2.53;;;2.33;;
19907;SDS011;10116;53.112;7.356;2024-02-16T14:20:19;4.20;;;2.50;;
19907;SDS011;10116;53.112;7.356;2024-02-16T14:22:46;4.27;;;2.23;;
19907;SDS011;10116;53.112;7.356;2024-02-16T14:25:12;3.63;;;2.33;;
19907;SDS011;10116;53.112;7.356;2024-02-16T14:27:38;5.47;;;2.27;;
19907;SDS011;10116;53.112;7.356;2024-02-16T14:30:05;2.43;;;2.23;;
19907;SDS011;10116;53.112;7.356;2024-02-16T14:32:31;1.70;;;1.60;;
19907;SDS011;10116;53.112;7.356;2024-02-16T14:34:56;2.70;;;2.20;;
19907;SDS011;10116;53.112;7.356;2024-02-16T14:37:22;2.27;;;2.17;;
19907;SDS011;10116;53.112;7.356;2024-02-16T14:39:48;6.43;;;1.77;;
19907;SDS011;10116;53.112;7.356;2024-02-16T14:42:14;3.40;;;2.10;;
19907;SDS011;10116;53.112;7.356;2024-02-16T14:44:39;2.20;;;1.73;;
19907;SDS011;10116;53.112;7.356;2024-02-16T14:47:05;4.20;;;2.27;;